Kennedy, Canada
Current Conditions -  °F | °C
As of 11:00 PM on Tuesday 21 Oct 2014 (Local Time) from CYEN Reporting Station
Few Clouds Few Clouds  
Wind Chill: 41°   Ceiling: Unl
Heat Index: 45°   Visibility: 15mi
Dew Point: 41°   Wind: 6mph
Humidity: 87%   Direction: 180°S
Pressure: 29.58"   Gusts: NA
Location:  50.02°N, 102.35°W
Report Text: CYEN 220500Z 18005KT 15SM FEW250 07/05 A2958 RMK CI1 SLP031
Loading
Personal Weather Stations






























Interactive Weather Map
Tropical Storm Tracking
New forecast layout! Learn more

10-Day Weather Forecast

Advertisements
Track Severe Weather on mobile